createdAt,value
2022-10-11T00:00:57.576Z,8.90
2022-10-11T00:03:25.236Z,8.93
2022-10-11T00:05:54.431Z,8.95
2022-10-11T00:08:22.657Z,8.95
2022-10-11T00:11:07.851Z,8.78
2022-10-11T00:13:36.025Z,8.78
2022-10-11T00:16:11.553Z,8.60
2022-10-11T00:18:39.925Z,8.41
2022-10-11T00:21:12.100Z,8.57
2022-10-11T00:23:41.814Z,8.55
2022-10-11T00:26:11.111Z,8.53
2022-10-11T00:28:39.492Z,8.70
2022-10-11T00:31:10.438Z,8.66
2022-10-11T00:33:38.164Z,8.61
2022-10-11T00:36:08.093Z,8.66
2022-10-11T00:38:36.389Z,8.60
2022-10-11T00:41:04.135Z,8.62
2022-10-11T00:43:32.961Z,8.70
2022-10-11T00:46:26.029Z,8.61
2022-10-11T00:49:20.081Z,8.62
2022-10-11T00:52:02.041Z,8.61
2022-10-11T00:54:35.334Z,8.45
2022-10-11T00:57:08.540Z,8.28
2022-10-11T00:59:44.357Z,8.23
2022-10-11T01:02:14.632Z,8.23
2022-10-11T01:04:43.170Z,8.23
2022-10-11T01:07:11.856Z,8.30
2022-10-11T01:09:39.452Z,8.30
2022-10-11T01:12:19.284Z,8.12
2022-10-11T01:14:53.244Z,8.01
2022-10-11T01:17:27.830Z,7.92
2022-10-11T01:20:35.379Z,7.89
2022-10-11T01:24:01.086Z,7.86
2022-10-11T01:27:02.152Z,7.73
2022-10-11T01:29:57.596Z,7.91
2022-10-11T01:32:34.609Z,7.94
2022-10-11T01:35:21.726Z,8.03
2022-10-11T01:38:01.918Z,8.12
2022-10-11T01:40:39.832Z,8.24
2022-10-11T01:43:08.827Z,8.26
2022-10-11T01:45:37.426Z,8.36
2022-10-11T01:48:13.914Z,8.37
2022-10-11T01:50:46.885Z,8.38
2022-10-11T01:54:06.640Z,8.50
2022-10-11T01:57:21.895Z,8.61
2022-10-11T02:00:07.785Z,8.65
2022-10-11T02:03:01.525Z,8.63
2022-10-11T02:06:12.381Z,8.65
2022-10-11T02:09:04.480Z,8.70
2022-10-11T02:11:36.888Z,8.71
2022-10-11T02:14:19.965Z,8.77
2022-10-11T02:17:17.542Z,8.78
2022-10-11T02:19:50.767Z,8.70
2022-10-11T02:22:25.162Z,8.73
2022-10-11T02:24:59.308Z,8.72
2022-10-11T02:27:31.038Z,8.63
2022-10-11T02:30:02.804Z,8.60
2022-10-11T02:32:31.451Z,8.44
2022-10-11T02:35:02.600Z,8.26
2022-10-11T02:37:43.080Z,8.17
2022-10-11T02:40:17.474Z,8.13
2022-10-11T02:43:37.046Z,8.22
2022-10-11T02:46:09.296Z,8.23
2022-10-11T02:48:38.106Z,8.11
2022-10-11T02:51:06.265Z,8.18
2022-10-11T02:53:34.009Z,8.12
2022-10-11T02:56:01.880Z,7.98
2022-10-11T02:58:29.692Z,8.04
2022-10-11T03:00:57.285Z,8.05
2022-10-11T03:03:24.883Z,8.13
2022-10-11T03:06:00.050Z,8.09
2022-10-11T03:08:28.228Z,8.05
2022-10-11T03:10:56.081Z,8.14
2022-10-11T03:13:23.748Z,8.10
2022-10-11T03:16:02.848Z,8.19
2022-10-11T03:18:31.373Z,8.22
2022-10-11T03:20:59.187Z,8.21
2022-10-11T03:23:26.809Z,8.26
2022-10-11T03:25:56.746Z,8.22
2022-10-11T03:28:24.647Z,8.19
2022-10-11T03:31:01.902Z,8.11
2022-10-11T03:33:34.552Z,7.89
2022-10-11T03:36:07.560Z,8.00
2022-10-11T03:38:35.658Z,8.00
2022-10-11T03:41:03.195Z,8.01
2022-10-11T03:43:31.264Z,7.96
2022-10-11T03:45:58.904Z,7.92
2022-10-11T03:48:29.729Z,7.71
2022-10-11T03:51:00.402Z,7.69
2022-10-11T03:53:28.195Z,7.53
2022-10-11T03:55:56.587Z,7.40
2022-10-11T03:58:24.657Z,7.40
2022-10-11T04:00:53.904Z,7.38
2022-10-11T04:03:21.793Z,7.34
2022-10-11T04:05:49.639Z,7.39
2022-10-11T04:08:17.828Z,7.38
2022-10-11T04:10:45.468Z,7.31
2022-10-11T04:13:15.367Z,7.34
2022-10-11T04:15:43.140Z,7.25
2022-10-11T04:18:12.024Z,7.46
2022-10-11T04:20:39.634Z,7.34
2022-10-11T04:23:07.471Z,7.33
2022-10-11T04:25:35.139Z,7.30
2022-10-11T04:28:03.105Z,7.28
2022-10-11T04:30:30.965Z,7.35
2022-10-11T04:32:58.580Z,7.31
2022-10-11T04:35:26.176Z,7.37
2022-10-11T04:37:56.606Z,7.36
2022-10-11T04:40:24.432Z,7.40
2022-10-11T04:42:53.683Z,7.28
2022-10-11T04:45:21.830Z,7.27
2022-10-11T04:47:49.778Z,7.03
2022-10-11T04:50:17.793Z,6.89
2022-10-11T04:52:45.477Z,6.81
2022-10-11T04:55:13.173Z,6.92
2022-10-11T04:57:42.161Z,7.01
2022-10-11T05:00:10.846Z,7.00
2022-10-11T05:02:38.507Z,6.85
2022-10-11T05:05:06.992Z,6.69
2022-10-11T05:07:34.596Z,6.74
2022-10-11T05:10:02.689Z,6.78
2022-10-11T05:12:30.348Z,6.92
2022-10-11T05:14:58.183Z,6.83
2022-10-11T05:17:25.941Z,6.64
2022-10-11T05:19:53.516Z,6.60
2022-10-11T05:22:21.159Z,6.64
2022-10-11T05:24:48.761Z,6.67
2022-10-11T05:27:16.379Z,6.82
2022-10-11T05:29:44.200Z,6.77
2022-10-11T05:32:11.813Z,6.75
2022-10-11T05:34:39.424Z,6.59
2022-10-11T05:37:07.149Z,6.34
2022-10-11T05:39:37.145Z,6.43
2022-10-11T05:42:09.580Z,6.41
2022-10-11T05:44:37.704Z,6.39
2022-10-11T05:47:05.919Z,6.49
2022-10-11T05:49:33.581Z,6.59
2022-10-11T05:52:03.775Z,6.67
2022-10-11T05:54:39.009Z,6.68
2022-10-11T05:57:06.672Z,6.62
2022-10-11T05:59:35.581Z,6.71
2022-10-11T06:02:03.508Z,6.69
2022-10-11T06:04:31.278Z,6.84
2022-10-11T06:06:58.853Z,6.93
2022-10-11T06:09:26.515Z,6.89
2022-10-11T06:11:54.159Z,6.90
2022-10-11T06:14:21.797Z,6.72
2022-10-11T06:16:49.427Z,6.84
2022-10-11T06:19:20.141Z,6.83
2022-10-11T06:21:48.483Z,6.82
2022-10-11T06:24:19.419Z,6.66
2022-10-11T06:26:49.369Z,6.71
2022-10-11T06:29:17.083Z,6.88
2022-10-11T06:31:44.873Z,6.94
2022-10-11T06:34:12.528Z,6.88
2022-10-11T06:36:40.144Z,6.90
2022-10-11T06:39:07.806Z,6.95
2022-10-11T06:41:35.365Z,7.01
2022-10-11T06:44:03.010Z,7.14
2022-10-11T06:46:33.179Z,7.07
2022-10-11T06:49:01.110Z,7.24
2022-10-11T06:51:31.513Z,7.18
2022-10-11T06:54:01.767Z,7.29
2022-10-11T06:56:31.545Z,7.12
2022-10-11T06:59:00.061Z,7.29
2022-10-11T07:01:28.110Z,7.26
2022-10-11T07:03:58.124Z,7.27
2022-10-11T07:06:29.371Z,7.27
2022-10-11T07:08:57.488Z,7.20
2022-10-11T07:11:27.639Z,7.32
2022-10-11T07:14:01.441Z,7.36
2022-10-11T07:16:29.464Z,7.43
2022-10-11T07:19:01.122Z,7.47
2022-10-11T07:21:31.405Z,7.36
2022-10-11T07:23:59.908Z,7.51
2022-10-11T07:26:31.348Z,7.58
2022-10-11T07:29:02.073Z,7.60
2022-10-11T07:31:29.728Z,7.58
2022-10-11T07:33:57.545Z,7.76
2022-10-11T07:36:25.697Z,7.69
2022-10-11T07:38:53.391Z,7.93
2022-10-11T07:41:21.116Z,8.06
2022-10-11T07:43:49.888Z,8.07
2022-10-11T07:46:18.779Z,8.26
2022-10-11T07:48:46.607Z,8.36
2022-10-11T07:51:22.815Z,8.44
2022-10-11T07:53:54.386Z,8.44
2022-10-11T07:56:27.003Z,8.74
2022-10-11T07:59:00.949Z,8.79
2022-10-11T08:01:31.307Z,8.93
2022-10-11T08:03:59.767Z,9.16
2022-10-11T08:06:32.778Z,9.24
2022-10-11T08:09:01.315Z,9.38
2022-10-11T08:11:34.045Z,9.39
2022-10-11T08:14:06.286Z,9.56
2022-10-11T08:16:35.010Z,9.73
2022-10-11T08:19:03.371Z,9.91
2022-10-11T08:21:31.623Z,10.03
2022-10-11T08:23:59.535Z,10.11
2022-10-11T08:26:27.120Z,10.35
2022-10-11T08:28:54.792Z,10.48
2022-10-11T08:31:22.461Z,10.56
2022-10-11T08:33:50.185Z,10.74
2022-10-11T08:36:17.766Z,10.84
2022-10-11T08:38:45.486Z,10.93
2022-10-11T08:41:50.960Z,11.13
2022-10-11T08:47:41.115Z,11.34
2022-10-11T08:50:20.526Z,11.41
2022-10-11T08:52:53.459Z,11.53
2022-10-11T08:55:44.969Z,11.65
2022-10-11T08:58:18.763Z,11.67
2022-10-11T09:00:48.672Z,11.90
2022-10-11T09:03:45.988Z,11.97
2022-10-11T09:06:31.618Z,12.07
2022-10-11T09:09:29.407Z,12.17
2022-10-11T09:12:40.828Z,12.27
2022-10-11T09:15:47.535Z,12.37
2022-10-11T09:19:04.813Z,12.55
2022-10-11T09:21:49.471Z,12.68
2022-10-11T09:24:36.879Z,12.75
2022-10-11T09:28:01.334Z,12.87
2022-10-11T09:30:24.624Z,12.99
2022-10-11T09:33:00.115Z,13.11
2022-10-11T09:35:33.204Z,13.10
2022-10-11T09:38:32.655Z,13.27
2022-10-11T09:41:10.282Z,13.33
2022-10-11T09:43:38.203Z,13.37
2022-10-11T09:46:25.069Z,13.34
2022-10-11T09:48:56.768Z,13.47
2022-10-11T09:51:27.330Z,13.61
2022-10-11T09:54:02.311Z,13.69
2022-10-11T09:56:32.045Z,13.88
2022-10-11T09:59:29.563Z,14.10
2022-10-11T10:02:19.556Z,14.24
2022-10-11T10:05:10.522Z,14.31
2022-10-11T10:07:43.666Z,14.16
2022-10-11T10:10:44.122Z,14.27
2022-10-11T10:13:24.099Z,14.30
2022-10-11T10:15:56.155Z,14.31
2022-10-11T10:18:32.611Z,14.37
2022-10-11T10:21:01.380Z,14.34
2022-10-11T10:23:30.799Z,14.25
2022-10-11T10:26:24.058Z,14.40
2022-10-11T10:29:03.729Z,14.47
2022-10-11T10:31:55.264Z,14.54
2022-10-11T10:34:37.452Z,14.57
2022-10-11T10:37:44.222Z,14.63
2022-10-11T10:40:48.472Z,14.73
2022-10-11T10:43:23.691Z,14.70
2022-10-11T10:46:20.996Z,14.89
2022-10-11T10:52:56.687Z,15.30
2022-10-11T10:55:51.507Z,15.60
2022-10-11T10:58:59.117Z,15.96
2022-10-11T11:01:33.610Z,16.19
2022-10-11T11:04:07.573Z,16.51
2022-10-11T11:06:44.058Z,16.68
2022-10-11T11:09:45.970Z,16.79
2022-10-11T11:12:47.455Z,16.59
2022-10-11T11:15:58.988Z,16.40
2022-10-11T11:18:52.207Z,16.23
2022-10-11T11:21:43.474Z,16.20
2022-10-11T11:24:40.490Z,16.13
2022-10-11T11:27:48.615Z,16.32
2022-10-11T11:31:08.910Z,16.29
2022-10-11T11:33:49.207Z,16.31
2022-10-11T11:36:28.098Z,16.32
2022-10-11T11:39:03.731Z,16.36
2022-10-11T11:41:42.855Z,16.23
2022-10-11T11:44:31.210Z,16.15
2022-10-11T11:47:24.943Z,16.07
2022-10-11T11:50:05.206Z,15.82
2022-10-11T11:52:47.369Z,15.56
2022-10-11T11:55:24.215Z,15.41
2022-10-11T11:58:30.369Z,15.29
2022-10-11T12:01:31.602Z,15.52
2022-10-11T12:04:11.154Z,15.66
2022-10-11T12:06:52.421Z,15.72
2022-10-11T12:09:27.589Z,15.73
2022-10-11T12:12:29.072Z,16.01
2022-10-11T12:15:08.527Z,16.07
2022-10-11T12:17:55.789Z,16.19
2022-10-11T12:20:32.361Z,16.23
2022-10-11T12:23:30.158Z,16.30
2022-10-11T12:26:28.885Z,16.29
2022-10-11T12:29:18.348Z,16.28
2022-10-11T12:32:11.352Z,16.31
2022-10-11T12:34:42.739Z,16.15
2022-10-11T12:37:25.285Z,16.26
2022-10-11T12:39:59.590Z,16.31
2022-10-11T12:42:31.069Z,16.46
2022-10-11T12:45:14.015Z,16.52
2022-10-11T12:48:16.615Z,16.52
2022-10-11T12:51:27.418Z,16.61
2022-10-11T12:54:36.773Z,16.69
2022-10-11T12:57:26.586Z,16.72
2022-10-11T12:59:54.352Z,16.67
2022-10-11T13:02:40.068Z,16.84
2022-10-11T13:05:44.971Z,16.74
2022-10-11T13:08:31.627Z,16.77
2022-10-11T13:11:07.551Z,16.95
2022-10-11T13:13:44.714Z,17.08
2022-10-11T13:16:20.637Z,17.18
2022-10-11T13:18:53.127Z,17.26
2022-10-11T13:21:36.842Z,17.23
2022-10-11T13:24:16.000Z,17.28
2022-10-11T13:26:45.954Z,17.32
2022-10-11T13:29:41.284Z,17.50
2022-10-11T13:32:20.740Z,17.57
2022-10-11T13:34:57.563Z,17.60
2022-10-11T13:37:28.362Z,17.60
2022-10-11T13:39:58.004Z,17.62
2022-10-11T13:42:31.935Z,17.56
2022-10-11T13:45:01.239Z,17.47
2022-10-11T13:47:30.538Z,17.39
2022-10-11T13:50:09.277Z,17.53
2022-10-11T13:52:48.830Z,17.52
2022-10-11T13:55:51.811Z,17.59
2022-10-11T13:58:29.134Z,17.64
2022-10-11T14:01:04.160Z,17.73
2022-10-11T14:03:41.374Z,18.01
2022-10-11T14:06:09.719Z,18.12
2022-10-11T14:08:41.631Z,18.17
2022-10-11T14:11:12.831Z,18.23
2022-10-11T14:13:42.725Z,18.19
2022-10-11T14:16:12.745Z,18.39
2022-10-11T14:18:58.767Z,18.51
2022-10-11T14:21:45.908Z,18.51
2022-10-11T14:24:16.303Z,18.49
2022-10-11T14:26:53.870Z,18.56
2022-10-11T14:29:27.595Z,18.59
2022-10-11T14:32:20.772Z,18.44
2022-10-11T14:34:49.728Z,18.35
2022-10-11T14:37:18.122Z,18.14
2022-10-11T14:39:47.688Z,18.04
2022-10-11T14:42:15.922Z,17.76
2022-10-11T14:44:43.523Z,17.56
2022-10-11T14:47:17.088Z,17.44
2022-10-11T14:49:44.789Z,17.42
2022-10-11T14:52:13.994Z,17.28
2022-10-11T14:54:42.038Z,17.11
2022-10-11T14:57:13.120Z,16.83
2022-10-11T14:59:40.747Z,16.83
2022-10-11T15:02:11.488Z,16.76
2022-10-11T15:04:39.142Z,16.88
2022-10-11T15:07:06.894Z,16.75
2022-10-11T15:09:34.545Z,16.91
2022-10-11T15:12:02.150Z,16.92
2022-10-11T15:14:29.750Z,16.89
2022-10-11T15:16:57.289Z,16.97
2022-10-11T15:19:25.709Z,17.03
2022-10-11T15:21:53.455Z,17.00
2022-10-11T15:24:21.587Z,17.05
2022-10-11T15:26:49.543Z,16.97
2022-10-11T15:29:17.995Z,17.01
2022-10-11T15:31:46.634Z,16.99
2022-10-11T15:34:14.386Z,16.90
2022-10-11T15:36:42.431Z,16.92
2022-10-11T15:39:33.923Z,16.88
2022-10-11T15:42:01.647Z,16.69
2022-10-11T15:44:29.256Z,16.69
2022-10-11T15:46:56.911Z,16.64
2022-10-11T15:49:24.463Z,16.53
2022-10-11T15:51:52.116Z,16.37
2022-10-11T15:54:20.050Z,16.43
2022-10-11T15:56:48.266Z,16.24
2022-10-11T15:59:15.893Z,16.28
2022-10-11T16:01:43.589Z,16.17
2022-10-11T16:04:11.248Z,16.20
2022-10-11T16:06:38.838Z,16.07
2022-10-11T16:09:06.708Z,16.10
2022-10-11T16:11:34.405Z,16.04
2022-10-11T16:14:02.488Z,15.88
2022-10-11T16:16:30.248Z,15.76
2022-10-11T16:18:57.844Z,15.76
2022-10-11T16:21:25.465Z,15.60
2022-10-11T16:23:53.054Z,15.63
2022-10-11T16:26:20.899Z,15.50
2022-10-11T16:28:48.708Z,15.44
2022-10-11T16:31:20.774Z,15.28
2022-10-11T16:33:49.812Z,15.27
2022-10-11T16:36:32.508Z,15.12
2022-10-11T16:39:02.947Z,15.15
2022-10-11T16:41:30.578Z,15.05
2022-10-11T16:43:58.243Z,14.90
2022-10-11T16:46:25.919Z,14.78
2022-10-11T16:48:58.023Z,14.65
2022-10-11T16:51:25.853Z,14.50
2022-10-11T16:53:53.676Z,14.55
2022-10-11T16:56:24.169Z,14.48
2022-10-11T16:58:55.788Z,14.37
2022-10-11T17:01:23.711Z,14.28
2022-10-11T17:03:52.267Z,14.13
2022-10-11T17:06:20.540Z,14.11
2022-10-11T17:08:48.848Z,14.04
2022-10-11T17:11:21.669Z,13.99
2022-10-11T17:13:51.624Z,13.91
2022-10-11T17:16:21.212Z,13.69
2022-10-11T17:18:49.416Z,13.73
2022-10-11T17:21:20.014Z,13.64
2022-10-11T17:23:49.245Z,13.58
2022-10-11T17:26:24.836Z,13.47
2022-10-11T17:28:57.971Z,13.43
2022-10-11T17:31:26.955Z,13.38
2022-10-11T17:33:55.054Z,13.41
2022-10-11T17:36:34.704Z,13.32
2022-10-11T17:39:08.078Z,13.24
2022-10-11T17:41:35.764Z,13.20
2022-10-11T17:44:04.331Z,13.19
2022-10-11T17:46:32.565Z,13.14
2022-10-11T17:49:06.955Z,13.04
2022-10-11T17:51:36.568Z,13.01
2022-10-11T17:54:04.760Z,12.93
2022-10-11T17:56:37.691Z,12.88
2022-10-11T17:59:06.642Z,12.80
2022-10-11T18:01:34.528Z,12.77
2022-10-11T18:04:05.370Z,12.75
2022-10-11T18:06:38.675Z,12.59
2022-10-11T18:09:06.464Z,12.44
2022-10-11T18:11:34.342Z,12.33
2022-10-11T18:14:02.211Z,12.27
2022-10-11T18:16:31.816Z,12.23
2022-10-11T18:18:59.697Z,12.34
2022-10-11T18:21:33.571Z,12.17
2022-10-11T18:24:07.641Z,12.16
2022-10-11T18:26:35.295Z,12.09
2022-10-11T18:29:04.766Z,12.04
2022-10-11T18:31:35.080Z,12.13
2022-10-11T18:34:05.069Z,11.92
2022-10-11T18:36:33.275Z,12.03
2022-10-11T18:39:06.234Z,11.89
2022-10-11T18:41:35.344Z,11.87
2022-10-11T18:44:06.759Z,11.81
2022-10-11T18:46:35.945Z,11.59
2022-10-11T18:49:05.136Z,11.73
2022-10-11T18:51:36.983Z,11.60
2022-10-11T18:54:06.754Z,11.61
2022-10-11T18:56:36.877Z,11.58
2022-10-11T18:59:06.027Z,11.61
2022-10-11T19:01:40.471Z,11.58
2022-10-11T19:04:10.358Z,11.47
2022-10-11T19:06:44.137Z,11.46
2022-10-11T19:09:22.420Z,11.43
2022-10-11T19:11:52.920Z,11.42
2022-10-11T19:14:25.894Z,11.24
2022-10-11T19:16:54.400Z,11.30
2022-10-11T19:19:27.099Z,11.26
2022-10-11T19:21:55.508Z,11.26
2022-10-11T19:24:27.118Z,11.14
2022-10-11T19:27:01.202Z,11.12
2022-10-11T19:29:31.593Z,11.06
2022-10-11T19:32:01.755Z,10.90
2022-10-11T19:34:31.556Z,11.01
2022-10-11T19:37:01.138Z,10.86
2022-10-11T19:39:29.626Z,10.90
2022-10-11T19:41:57.191Z,10.72
2022-10-11T19:44:24.858Z,10.86
2022-10-11T19:46:53.165Z,10.70
2022-10-11T19:49:25.033Z,10.70
2022-10-11T19:51:55.082Z,10.65
2022-10-11T19:54:23.397Z,10.83
2022-10-11T19:56:50.965Z,10.59
2022-10-11T19:59:18.693Z,10.75
2022-10-11T20:01:51.311Z,10.50
2022-10-11T20:07:09.525Z,10.55
2022-10-11T20:09:37.142Z,10.44
2022-10-11T20:12:04.886Z,10.34
2022-10-11T20:14:32.495Z,10.33
2022-10-11T20:17:00.014Z,10.37
2022-10-11T20:19:30.645Z,10.26
2022-10-11T20:22:00.869Z,10.24
2022-10-11T20:24:32.950Z,10.18
2022-10-11T20:27:03.990Z,10.18
2022-10-11T20:29:31.669Z,10.22
2022-10-11T20:31:59.314Z,10.14
2022-10-11T20:34:27.698Z,10.13
2022-10-11T20:36:55.437Z,10.05
2022-10-11T20:39:23.777Z,10.09
2022-10-11T20:41:51.478Z,10.00
2022-10-11T20:44:19.082Z,10.05
2022-10-11T20:46:46.655Z,10.05
2022-10-11T20:49:14.256Z,9.95
2022-10-11T20:51:42.633Z,9.95
2022-10-11T20:54:12.345Z,9.94
2022-10-11T20:56:40.281Z,9.98
2022-10-11T20:59:08.463Z,9.85
2022-10-11T21:01:40.116Z,9.92
2022-10-11T21:04:10.896Z,9.62
2022-10-11T21:06:38.625Z,9.60
2022-10-11T21:09:06.186Z,9.58
2022-10-11T21:11:35.041Z,9.59
2022-10-11T21:14:05.916Z,9.73
2022-10-11T21:16:34.332Z,9.68
2022-10-11T21:19:02.394Z,9.72
2022-10-11T21:21:30.632Z,9.66
2022-10-11T21:24:00.919Z,9.67
2022-10-11T21:26:30.205Z,9.54
2022-10-11T21:29:01.347Z,9.43
2022-10-11T21:31:33.772Z,9.37
2022-10-11T21:34:03.332Z,9.31
2022-10-11T21:36:31.137Z,9.28
2022-10-11T21:38:58.744Z,9.38
2022-10-11T21:41:30.062Z,9.29
2022-10-11T21:43:58.356Z,9.31
2022-10-11T21:49:20.519Z,9.40
2022-10-11T21:51:48.770Z,9.29
2022-10-11T21:54:16.869Z,9.32
2022-10-11T21:56:44.447Z,9.52
2022-10-11T21:59:12.749Z,9.50
2022-10-11T22:01:41.733Z,9.42
2022-10-11T22:04:10.583Z,9.47
2022-10-11T22:06:39.262Z,9.40
2022-10-11T22:09:08.229Z,9.22
2022-10-11T22:11:36.842Z,9.13
2022-10-11T22:14:05.103Z,9.20
2022-10-11T22:16:34.457Z,9.18
2022-10-11T22:19:02.364Z,9.20
2022-10-11T22:21:30.383Z,9.26
2022-10-11T22:23:58.057Z,9.11
2022-10-11T22:26:30.626Z,9.19
2022-10-11T22:29:00.303Z,9.06
2022-10-11T22:31:28.667Z,9.27
2022-10-11T22:33:58.936Z,9.19
2022-10-11T22:36:28.197Z,9.04
2022-10-11T22:38:55.848Z,9.10
2022-10-11T22:41:24.292Z,9.20
2022-10-11T22:43:52.466Z,9.16
2022-10-11T22:46:20.118Z,9.05
2022-10-11T22:48:47.673Z,9.07
2022-10-11T22:51:15.272Z,8.85
2022-10-11T22:53:42.900Z,8.91
2022-10-11T22:56:11.220Z,8.79
2022-10-11T22:58:38.802Z,8.60
2022-10-11T23:01:12.827Z,8.57
2022-10-11T23:03:40.583Z,8.48
2022-10-11T23:06:08.688Z,8.56
2022-10-11T23:08:36.262Z,8.48
2022-10-11T23:11:07.980Z,8.43
2022-10-11T23:13:35.885Z,8.42
2022-10-11T23:16:12.097Z,8.45
2022-10-11T23:18:39.861Z,8.47
2022-10-11T23:21:08.433Z,8.46
2022-10-11T23:23:36.104Z,8.42
2022-10-11T23:26:08.457Z,8.41
2022-10-11T23:28:37.485Z,8.54
2022-10-11T23:31:12.157Z,8.56
2022-10-11T23:33:39.883Z,8.35
2022-10-11T23:36:19.597Z,8.51
2022-10-11T23:38:56.225Z,8.39
2022-10-11T23:41:26.758Z,8.35
2022-10-11T23:43:54.852Z,8.40
2022-10-11T23:46:23.132Z,8.43
2022-10-11T23:48:51.014Z,8.28
2022-10-11T23:51:18.630Z,8.34
2022-10-11T23:53:46.165Z,8.29
2022-10-11T23:56:13.819Z,8.19
2022-10-11T23:58:41.600Z,8.17
